createdAt,value
2023-02-26T00:00:25.286Z,73.28
2023-02-26T00:03:43.999Z,72.87
2023-02-26T00:06:14.682Z,72.64
2023-02-26T00:08:50.991Z,73.18
2023-02-26T00:11:28.862Z,72.78
2023-02-26T00:14:08.003Z,73.20
2023-02-26T00:16:48.108Z,73.07
2023-02-26T00:19:25.590Z,73.33
2023-02-26T00:22:02.950Z,72.43
2023-02-26T00:24:40.155Z,72.49
2023-02-26T00:27:19.930Z,72.47
2023-02-26T00:29:58.047Z,72.49
2023-02-26T00:32:36.412Z,72.24
2023-02-26T00:35:19.955Z,72.01
2023-02-26T00:38:18.687Z,71.83
2023-02-26T00:40:58.689Z,71.61
2023-02-26T00:43:32.490Z,71.93
2023-02-26T00:46:28.378Z,71.67
2023-02-26T00:49:22.234Z,71.60
2023-02-26T00:52:08.443Z,71.85
2023-02-26T00:54:45.906Z,71.25
2023-02-26T00:57:22.880Z,70.99
2023-02-26T01:00:00.489Z,70.87
2023-02-26T01:02:38.985Z,70.76
2023-02-26T01:05:17.546Z,69.91
2023-02-26T01:08:32.793Z,70.22
2023-02-26T01:11:12.674Z,70.48
2023-02-26T01:13:50.848Z,70.85
2023-02-26T01:16:31.873Z,70.55
2023-02-26T01:19:29.032Z,70.29
2023-02-26T01:22:27.344Z,69.99
2023-02-26T01:25:25.084Z,69.95
2023-02-26T01:28:00.257Z,70.37
2023-02-26T01:30:37.917Z,69.97
2023-02-26T01:33:33.016Z,69.97
2023-02-26T01:36:25.012Z,69.68
2023-02-26T01:39:06.743Z,68.86
2023-02-26T01:41:56.841Z,68.79
2023-02-26T01:44:40.323Z,69.04
2023-02-26T01:47:50.650Z,69.48
2023-02-26T01:50:33.091Z,69.36
2023-02-26T01:53:30.324Z,70.02
2023-02-26T01:56:16.129Z,69.53
2023-02-26T01:58:53.771Z,69.29
2023-02-26T02:01:31.257Z,68.79
2023-02-26T02:04:11.965Z,68.61
2023-02-26T02:06:49.849Z,69.12
2023-02-26T02:09:27.143Z,68.74
2023-02-26T02:12:45.310Z,69.32
2023-02-26T02:15:52.033Z,68.97
2023-02-26T02:18:51.198Z,68.42
2023-02-26T02:22:03.365Z,68.59
2023-02-26T02:25:17.587Z,68.57
2023-02-26T02:27:58.305Z,68.83
2023-02-26T02:30:58.268Z,68.48
2023-02-26T02:33:43.304Z,69.02
2023-02-26T02:36:46.709Z,68.09
2023-02-26T02:39:32.465Z,67.77
2023-02-26T02:42:23.390Z,68.50
2023-02-26T02:45:34.477Z,68.16
2023-02-26T02:48:20.357Z,68.10
2023-02-26T02:51:15.779Z,67.76
2023-02-26T02:54:21.940Z,67.88
2023-02-26T02:57:02.045Z,68.07
2023-02-26T02:59:49.850Z,68.13
2023-02-26T03:02:38.291Z,67.82
2023-02-26T03:05:17.213Z,67.89
2023-02-26T03:08:14.678Z,68.05
2023-02-26T03:10:52.345Z,68.65
2023-02-26T03:13:30.507Z,68.75
2023-02-26T03:16:42.627Z,68.85
2023-02-26T03:19:49.035Z,68.94
2023-02-26T03:22:48.946Z,68.82
2023-02-26T03:25:36.237Z,68.14
2023-02-26T03:28:19.519Z,68.85
2023-02-26T03:31:08.834Z,68.64
2023-02-26T03:34:05.151Z,68.33
2023-02-26T03:36:55.322Z,68.40
2023-02-26T03:39:43.449Z,67.86
2023-02-26T03:42:54.018Z,67.17
2023-02-26T03:45:38.403Z,66.53
2023-02-26T03:48:17.739Z,66.62
2023-02-26T03:50:58.395Z,65.75
2023-02-26T03:53:50.152Z,65.26
2023-02-26T03:56:45.977Z,64.71
2023-02-26T03:59:24.225Z,64.95
2023-02-26T04:02:34.214Z,65.12
2023-02-26T04:05:29.950Z,65.45
2023-02-26T04:08:07.799Z,65.50
2023-02-26T04:11:11.848Z,65.46
2023-02-26T04:13:50.702Z,64.75
2023-02-26T04:16:22.129Z,65.62
2023-02-26T04:18:57.831Z,65.27
2023-02-26T04:21:32.316Z,65.55
2023-02-26T04:24:10.294Z,65.47
2023-02-26T04:26:47.372Z,66.40
2023-02-26T04:29:25.048Z,65.63
2023-02-26T04:32:02.704Z,65.70
2023-02-26T04:34:39.807Z,66.02
2023-02-26T04:37:17.244Z,65.72
2023-02-26T04:39:54.112Z,66.17
2023-02-26T04:42:30.908Z,65.59
2023-02-26T04:45:01.482Z,65.54
2023-02-26T04:47:38.047Z,65.33
2023-02-26T04:50:15.950Z,65.62
2023-02-26T04:52:52.685Z,66.11
2023-02-26T04:55:29.591Z,66.12
2023-02-26T04:58:06.949Z,65.92
2023-02-26T05:00:43.921Z,66.27
2023-02-26T05:03:20.658Z,66.34
2023-02-26T05:05:58.085Z,66.54
2023-02-26T05:08:35.090Z,66.59
2023-02-26T05:11:06.364Z,66.39
2023-02-26T05:13:39.995Z,65.88
2023-02-26T05:16:16.869Z,66.39
2023-02-26T05:18:54.147Z,66.72
2023-02-26T05:21:31.739Z,67.19
2023-02-26T05:24:09.960Z,67.31
2023-02-26T05:26:47.184Z,67.48
2023-02-26T05:29:24.560Z,67.38
2023-02-26T05:32:01.460Z,67.84
2023-02-26T05:34:38.404Z,68.00
2023-02-26T05:37:15.403Z,67.87
2023-02-26T05:39:52.797Z,67.90
2023-02-26T05:42:23.588Z,68.18
2023-02-26T05:45:00.446Z,68.57
2023-02-26T05:47:39.616Z,68.53
2023-02-26T05:50:17.300Z,68.59
2023-02-26T05:52:54.619Z,68.61
2023-02-26T05:55:31.661Z,68.33
2023-02-26T05:58:09.455Z,67.79
2023-02-26T06:00:46.300Z,68.49
2023-02-26T06:03:23.809Z,65.86
2023-02-26T06:06:00.893Z,65.82
2023-02-26T06:08:38.734Z,65.09
2023-02-26T06:11:15.883Z,64.29
2023-02-26T06:13:53.145Z,64.16
2023-02-26T06:16:25.322Z,64.28
2023-02-26T06:19:02.445Z,63.94
2023-02-26T06:21:39.325Z,64.07
2023-02-26T06:24:16.396Z,64.21
2023-02-26T06:26:53.802Z,64.13
2023-02-26T06:29:30.675Z,63.97
2023-02-26T06:32:08.844Z,63.99
2023-02-26T06:34:45.828Z,63.91
2023-02-26T06:37:22.822Z,63.99
2023-02-26T06:39:59.872Z,64.26
2023-02-26T06:42:36.851Z,63.85
2023-02-26T06:45:14.459Z,63.68
2023-02-26T06:47:45.328Z,63.47
2023-02-26T06:50:21.942Z,63.10
2023-02-26T06:52:59.611Z,62.53
2023-02-26T06:55:37.544Z,63.00
2023-02-26T06:58:15.448Z,62.84
2023-02-26T07:00:52.693Z,62.47
2023-02-26T07:03:29.913Z,62.11
2023-02-26T07:06:26.014Z,62.18
2023-02-26T07:09:02.473Z,62.54
2023-02-26T07:11:40.237Z,62.62
2023-02-26T07:14:17.839Z,62.30
2023-02-26T07:16:56.260Z,62.33
2023-02-26T07:19:34.207Z,62.21
2023-02-26T07:22:11.178Z,61.89
2023-02-26T07:24:48.653Z,60.87
2023-02-26T07:27:25.914Z,61.14
2023-02-26T07:30:03.137Z,59.88
2023-02-26T07:32:40.720Z,60.02
2023-02-26T07:35:17.454Z,60.05
2023-02-26T07:37:54.565Z,60.38
2023-02-26T07:40:24.652Z,59.80
2023-02-26T07:42:55.462Z,60.35
2023-02-26T07:45:31.983Z,59.49
2023-02-26T07:48:09.523Z,58.94
2023-02-26T07:50:46.661Z,59.35
2023-02-26T07:53:24.249Z,59.12
2023-02-26T07:55:55.268Z,58.92
2023-02-26T07:58:27.262Z,59.91
2023-02-26T08:01:04.015Z,58.45
2023-02-26T08:03:41.016Z,58.02
2023-02-26T08:06:19.453Z,59.09
2023-02-26T08:08:56.709Z,58.88
2023-02-26T08:11:37.362Z,59.08
2023-02-26T08:14:15.084Z,59.37
2023-02-26T08:16:53.593Z,59.74
2023-02-26T08:19:31.342Z,59.40
2023-02-26T08:22:09.507Z,59.08
2023-02-26T08:24:47.064Z,58.64
2023-02-26T08:27:23.836Z,59.24
2023-02-26T08:30:01.962Z,58.35
2023-02-26T08:32:42.754Z,59.18
2023-02-26T08:35:20.211Z,59.41
2023-02-26T08:37:58.283Z,58.51
2023-02-26T08:40:28.636Z,59.08
2023-02-26T08:43:00.197Z,58.79
2023-02-26T08:45:37.322Z,58.58
2023-02-26T08:48:14.764Z,58.56
2023-02-26T08:50:52.678Z,58.98
2023-02-26T08:53:29.759Z,59.48
2023-02-26T08:56:07.782Z,58.83
2023-02-26T08:58:45.691Z,59.41
2023-02-26T09:01:23.137Z,59.08
2023-02-26T09:03:55.226Z,59.71
2023-02-26T09:06:28.993Z,58.46
2023-02-26T09:09:06.148Z,58.59
2023-02-26T09:11:43.887Z,58.50
2023-02-26T09:14:21.493Z,59.09
2023-02-26T09:16:59.203Z,58.78
2023-02-26T09:19:29.502Z,59.16
2023-02-26T09:22:00.463Z,59.22
2023-02-26T09:24:31.594Z,59.48
2023-02-26T09:27:06.726Z,59.55
2023-02-26T09:29:44.866Z,59.62
2023-02-26T09:32:22.322Z,58.95
2023-02-26T09:34:59.718Z,58.35
2023-02-26T09:37:37.292Z,58.98
2023-02-26T09:40:26.033Z,59.01
2023-02-26T09:43:27.490Z,59.29
2023-02-26T09:46:05.368Z,59.77
2023-02-26T09:48:45.740Z,59.61
2023-02-26T09:51:27.618Z,59.84
2023-02-26T09:54:01.461Z,60.20
2023-02-26T09:56:37.701Z,59.55
2023-02-26T09:59:11.584Z,59.96
2023-02-26T10:02:47.541Z,59.89
2023-02-26T10:05:47.941Z,60.24
2023-02-26T10:08:29.769Z,60.67
2023-02-26T10:11:29.013Z,60.47
2023-02-26T10:14:34.954Z,60.42
2023-02-26T10:17:33.477Z,60.09
2023-02-26T10:20:20.199Z,59.97
2023-02-26T10:23:13.797Z,60.83
2023-02-26T10:25:56.877Z,61.51
2023-02-26T10:29:24.994Z,60.90
2023-02-26T10:32:27.830Z,61.23
2023-02-26T10:35:10.734Z,61.16
2023-02-26T10:38:15.066Z,61.01
2023-02-26T10:41:14.546Z,61.01
2023-02-26T10:44:12.541Z,61.39
2023-02-26T10:47:08.186Z,61.31
2023-02-26T10:50:03.930Z,61.61
2023-02-26T10:52:37.306Z,60.96
2023-02-26T10:55:43.019Z,60.84
2023-02-26T10:58:21.778Z,61.29
2023-02-26T11:00:59.888Z,60.36
2023-02-26T11:03:48.910Z,60.16
2023-02-26T11:06:37.924Z,59.64
2023-02-26T11:09:47.081Z,58.97
2023-02-26T11:12:24.988Z,57.16
2023-02-26T11:15:06.093Z,56.49
2023-02-26T11:17:46.154Z,55.68
2023-02-26T11:20:48.075Z,55.39
2023-02-26T11:23:30.707Z,55.56
2023-02-26T11:26:18.033Z,54.14
2023-02-26T11:29:00.512Z,54.41
2023-02-26T11:31:38.822Z,54.19
2023-02-26T11:34:13.909Z,53.81
2023-02-26T11:36:54.033Z,53.32
2023-02-26T11:39:36.105Z,52.93
2023-02-26T11:42:15.306Z,53.37
2023-02-26T11:44:53.385Z,52.70
2023-02-26T11:47:35.376Z,53.15
2023-02-26T11:50:19.840Z,53.57
2023-02-26T11:53:33.474Z,53.96
2023-02-26T11:56:16.385Z,53.71
2023-02-26T11:58:56.259Z,53.81
2023-02-26T12:01:34.285Z,53.54
2023-02-26T12:04:14.190Z,54.10
2023-02-26T12:06:55.266Z,53.75
2023-02-26T12:09:34.620Z,54.47
2023-02-26T12:12:14.495Z,54.62
2023-02-26T12:15:30.435Z,54.16
2023-02-26T12:18:44.705Z,54.55
2023-02-26T12:21:51.542Z,54.77
2023-02-26T12:24:39.644Z,55.35
2023-02-26T12:27:55.393Z,55.66
2023-02-26T12:30:40.986Z,56.06
2023-02-26T12:34:03.189Z,55.66
2023-02-26T12:37:12.912Z,55.81
2023-02-26T12:40:09.661Z,55.26
2023-02-26T12:42:54.038Z,54.72
2023-02-26T12:45:47.768Z,55.82
2023-02-26T12:48:53.641Z,55.63
2023-02-26T12:51:52.295Z,55.07
2023-02-26T12:54:57.877Z,54.26
2023-02-26T12:57:54.876Z,53.40
2023-02-26T13:01:05.143Z,53.71
2023-02-26T13:04:13.978Z,53.76
2023-02-26T13:07:33.821Z,53.17
2023-02-26T13:10:31.945Z,52.71
2023-02-26T13:13:48.055Z,50.81
2023-02-26T13:16:56.773Z,51.44
2023-02-26T13:19:48.606Z,51.13
2023-02-26T13:22:30.814Z,51.02
2023-02-26T13:25:26.525Z,51.21
2023-02-26T13:28:01.852Z,50.92
2023-02-26T13:30:47.326Z,51.23
2023-02-26T13:33:28.955Z,51.58
2023-02-26T13:36:08.640Z,51.30
2023-02-26T13:38:44.736Z,51.68
2023-02-26T13:41:40.963Z,51.82
2023-02-26T13:44:31.079Z,52.26
2023-02-26T13:47:43.165Z,52.79
2023-02-26T13:50:36.058Z,52.19
2023-02-26T13:53:53.944Z,52.13
2023-02-26T13:57:26.585Z,52.79
2023-02-26T14:00:36.082Z,52.45
2023-02-26T14:03:18.320Z,51.99
2023-02-26T14:06:09.110Z,51.47
2023-02-26T14:08:50.590Z,51.69
2023-02-26T14:11:46.123Z,52.15
2023-02-26T14:14:40.168Z,52.75
2023-02-26T14:17:14.615Z,52.27
2023-02-26T14:19:54.594Z,51.90
2023-02-26T14:22:33.221Z,52.22
2023-02-26T14:25:33.612Z,51.71
2023-02-26T14:28:30.674Z,52.10
2023-02-26T14:31:15.261Z,51.90
2023-02-26T14:34:11.266Z,51.78
2023-02-26T14:37:09.223Z,51.97
2023-02-26T14:40:21.904Z,52.28
2023-02-26T14:43:11.092Z,52.40
2023-02-26T14:45:49.505Z,52.60
2023-02-26T14:48:33.402Z,52.91
2023-02-26T14:51:19.860Z,52.27
2023-02-26T14:54:31.844Z,53.10
2023-02-26T14:57:16.096Z,53.38
2023-02-26T15:00:14.547Z,53.30
2023-02-26T15:03:02.193Z,54.03
2023-02-26T15:06:11.941Z,53.24
2023-02-26T15:09:12.595Z,53.06
2023-02-26T15:12:26.739Z,53.62
2023-02-26T15:15:25.204Z,53.89
2023-02-26T15:18:21.571Z,53.78
2023-02-26T15:21:19.343Z,53.86
2023-02-26T15:24:05.363Z,54.03
2023-02-26T15:26:48.184Z,53.52
2023-02-26T15:29:22.190Z,53.70
2023-02-26T15:32:03.878Z,54.19
2023-02-26T15:34:34.364Z,54.59
2023-02-26T15:37:21.487Z,54.53
2023-02-26T15:39:57.076Z,54.28
2023-02-26T15:42:38.999Z,54.31
2023-02-26T15:45:39.826Z,54.44
2023-02-26T15:48:32.052Z,54.89
2023-02-26T15:51:13.936Z,54.45
2023-02-26T15:53:58.754Z,54.79
2023-02-26T15:56:39.700Z,55.13
2023-02-26T15:59:22.906Z,55.21
2023-02-26T16:01:57.886Z,55.85
2023-02-26T16:04:37.056Z,55.68
2023-02-26T16:07:16.408Z,56.07
2023-02-26T16:09:55.788Z,55.97
2023-02-26T16:12:44.331Z,56.33
2023-02-26T16:15:38.494Z,56.72
2023-02-26T16:18:28.180Z,56.51
2023-02-26T16:21:08.102Z,56.46
2023-02-26T16:23:51.193Z,56.72
2023-02-26T16:26:31.163Z,56.50
2023-02-26T16:29:28.853Z,56.21
2023-02-26T16:32:04.714Z,57.12
2023-02-26T16:34:46.299Z,56.63
2023-02-26T16:37:38.647Z,56.94
2023-02-26T16:40:37.338Z,57.41
2023-02-26T16:43:50.276Z,57.17
2023-02-26T16:46:46.389Z,57.18
2023-02-26T16:49:29.206Z,57.77
2023-02-26T16:52:03.260Z,57.65
2023-02-26T16:54:42.564Z,57.67
2023-02-26T16:57:43.646Z,57.51
2023-02-26T17:00:32.534Z,57.67
2023-02-26T17:03:20.897Z,58.26
2023-02-26T17:06:04.739Z,58.04
2023-02-26T17:08:49.305Z,58.25
2023-02-26T17:11:39.666Z,58.03
2023-02-26T17:14:26.006Z,58.39
2023-02-26T17:17:02.319Z,58.17
2023-02-26T17:19:39.367Z,58.72
2023-02-26T17:22:20.634Z,58.86
2023-02-26T17:24:58.966Z,58.32
2023-02-26T17:27:40.494Z,58.34
2023-02-26T17:30:22.484Z,58.60
2023-02-26T17:33:01.039Z,58.28
2023-02-26T17:35:38.466Z,58.23
2023-02-26T17:38:18.540Z,58.09
2023-02-26T17:40:49.168Z,58.14
2023-02-26T17:43:25.273Z,58.61
2023-02-26T17:46:01.426Z,57.77
2023-02-26T17:48:38.471Z,58.82
2023-02-26T17:51:17.120Z,58.00
2023-02-26T17:53:55.209Z,57.98
2023-02-26T17:56:30.214Z,57.81
2023-02-26T17:59:08.302Z,57.58
2023-02-26T18:01:45.864Z,57.77
2023-02-26T18:04:23.607Z,57.51
2023-02-26T18:07:01.215Z,57.69
2023-02-26T18:09:38.953Z,56.98
2023-02-26T18:12:21.657Z,57.36
2023-02-26T18:15:00.529Z,56.91
2023-02-26T18:17:38.312Z,57.63
2023-02-26T18:20:24.354Z,57.24
2023-02-26T18:23:12.793Z,57.17
2023-02-26T18:25:52.325Z,57.56
2023-02-26T18:28:29.362Z,57.69
2023-02-26T18:31:09.899Z,57.52
2023-02-26T18:33:48.017Z,57.68
2023-02-26T18:36:38.183Z,56.77
2023-02-26T18:39:20.742Z,57.28
2023-02-26T18:41:57.615Z,57.38
2023-02-26T18:44:29.189Z,57.35
2023-02-26T18:47:06.732Z,57.16
2023-02-26T18:49:45.047Z,57.49
2023-02-26T18:52:22.866Z,57.82
2023-02-26T18:55:00.990Z,57.93
2023-02-26T18:57:39.671Z,58.10
2023-02-26T19:00:18.097Z,58.16
2023-02-26T19:02:55.356Z,58.30
2023-02-26T19:05:27.539Z,58.36
2023-02-26T19:08:04.093Z,58.15
2023-02-26T19:10:35.199Z,58.17
2023-02-26T19:13:11.946Z,57.94
2023-02-26T19:15:50.262Z,58.62
2023-02-26T19:18:26.833Z,57.83
2023-02-26T19:21:05.320Z,58.32
2023-02-26T19:23:42.339Z,58.11
2023-02-26T19:26:19.338Z,57.82
2023-02-26T19:28:49.888Z,57.99
2023-02-26T19:31:25.054Z,58.02
2023-02-26T19:34:02.467Z,58.39
2023-02-26T19:36:33.871Z,58.37
2023-02-26T19:39:12.498Z,58.38
2023-02-26T19:41:51.472Z,58.27
2023-02-26T19:44:29.335Z,58.17
2023-02-26T19:47:07.552Z,58.14
2023-02-26T19:49:44.399Z,58.15
2023-02-26T19:52:21.140Z,57.92
2023-02-26T19:54:57.777Z,57.56
2023-02-26T19:57:28.607Z,57.41
2023-02-26T20:00:05.612Z,57.02
2023-02-26T20:02:35.918Z,56.87
2023-02-26T20:05:17.655Z,57.08
2023-02-26T20:07:56.661Z,54.83
2023-02-26T20:10:33.335Z,55.59
2023-02-26T20:13:10.697Z,55.25
2023-02-26T20:15:41.269Z,55.32
2023-02-26T20:18:12.239Z,55.67
2023-02-26T20:20:43.697Z,55.65
2023-02-26T20:23:20.883Z,55.93
2023-02-26T20:26:00.016Z,55.33
2023-02-26T20:28:36.598Z,55.12
2023-02-26T20:31:14.227Z,54.95
2023-02-26T20:33:51.556Z,55.21
2023-02-26T20:36:28.929Z,55.59
2023-02-26T20:39:07.391Z,55.40
2023-02-26T20:41:41.503Z,55.24
2023-02-26T20:44:11.816Z,54.77
2023-02-26T20:46:41.884Z,54.51
2023-02-26T20:49:19.591Z,54.53
2023-02-26T20:51:57.222Z,54.78
2023-02-26T20:54:27.595Z,54.56
2023-02-26T20:57:05.650Z,54.64
2023-02-26T20:59:43.070Z,54.47
2023-02-26T21:02:21.516Z,54.66
2023-02-26T21:04:52.796Z,54.80
2023-02-26T21:07:27.841Z,55.01
2023-02-26T21:10:08.128Z,54.83
2023-02-26T21:12:44.508Z,54.87
2023-02-26T21:15:22.236Z,55.23
2023-02-26T21:17:54.100Z,55.19
2023-02-26T21:20:24.844Z,55.00
2023-02-26T21:23:01.854Z,54.68
2023-02-26T21:25:32.197Z,55.12
2023-02-26T21:28:08.385Z,55.73
2023-02-26T21:30:46.214Z,55.61
2023-02-26T21:33:23.367Z,55.48
2023-02-26T21:36:00.707Z,55.65
2023-02-26T21:38:37.967Z,55.99
2023-02-26T21:41:15.894Z,56.38
2023-02-26T21:43:48.368Z,56.09
2023-02-26T21:46:25.863Z,56.63
2023-02-26T21:49:03.664Z,57.00
2023-02-26T21:51:36.646Z,57.05
2023-02-26T21:54:09.569Z,57.44
2023-02-26T21:56:39.772Z,58.19
2023-02-26T21:59:17.186Z,57.93
2023-02-26T22:01:47.393Z,58.08
2023-02-26T22:04:18.695Z,58.20
2023-02-26T22:06:50.412Z,57.96
2023-02-26T22:09:28.516Z,57.93
2023-02-26T22:12:05.509Z,58.56
2023-02-26T22:14:42.460Z,58.65
2023-02-26T22:17:19.795Z,59.12
2023-02-26T22:19:50.417Z,59.37
2023-02-26T22:22:28.125Z,59.16
2023-02-26T22:25:07.791Z,59.69
2023-02-26T22:27:44.949Z,59.87
2023-02-26T22:30:24.364Z,60.31
2023-02-26T22:32:54.503Z,60.52
2023-02-26T22:35:30.506Z,60.50
2023-02-26T22:38:08.388Z,60.32
2023-02-26T22:40:45.721Z,60.25
2023-02-26T22:43:23.015Z,60.76
2023-02-26T22:46:00.160Z,60.70
2023-02-26T22:48:37.666Z,61.03
2023-02-26T22:51:15.230Z,61.19
2023-02-26T22:53:52.568Z,61.00
2023-02-26T22:56:30.219Z,61.37
2023-02-26T22:59:08.423Z,61.77
2023-02-26T23:01:46.048Z,62.06
2023-02-26T23:04:16.133Z,62.55
2023-02-26T23:06:51.535Z,62.14
2023-02-26T23:09:28.656Z,62.42
2023-02-26T23:12:06.119Z,61.94
2023-02-26T23:14:43.638Z,61.43
2023-02-26T23:17:20.980Z,61.61
2023-02-26T23:19:58.723Z,61.49
2023-02-26T23:22:35.620Z,60.40
2023-02-26T23:25:13.932Z,60.25
2023-02-26T23:27:51.522Z,60.43
2023-02-26T23:30:54.269Z,60.26
2023-02-26T23:33:27.684Z,59.23
2023-02-26T23:36:04.390Z,59.48
2023-02-26T23:38:42.077Z,60.00
2023-02-26T23:41:20.351Z,60.31
2023-02-26T23:43:59.033Z,60.23
2023-02-26T23:46:29.398Z,59.89
2023-02-26T23:49:06.326Z,59.61
2023-02-26T23:51:43.381Z,59.48
2023-02-26T23:54:20.305Z,60.39
2023-02-26T23:56:50.573Z,60.40
2023-02-26T23:59:27.189Z,60.49
